Time;durP1;ratioP1;P1;durP2;ratioP2;P2;SDS_P1;SDS_P2;PMS_P1;PMS_P2;Temp;Humidity;BMP_temperature;BMP_pressure;BME280_temperature;BME280_humidity;BME280_pressure;Samples;Min_cycle;Max_cycle;Signal;HPM_P1;HPM_P2
2022/04/14 00:00:49;;;;;;;2.03;1.20;;;11.40;99.90;;;;;;5018561;28;20045;-58
2022/04/14 00:03:16;;;;;;;3.60;2.00;;;11.40;99.90;;;;;;5022138;28;20120;-58
2022/04/14 00:05:43;;;;;;;1.67;1.05;;;11.30;99.90;;;;;;5031356;28;20145;-59
2022/04/14 00:08:09;;;;;;;2.17;1.17;;;11.30;99.90;;;;;;5044108;28;20107;-58
2022/04/14 00:10:36;;;;;;;3.03;1.30;;;11.30;99.90;;;;;;5023139;28;20044;-58
2022/04/14 00:13:03;;;;;;;3.08;1.13;;;11.20;99.90;;;;;;5032595;28;20480;-58
2022/04/14 00:15:31;;;;;;;2.00;0.98;;;11.20;99.90;;;;;;5026241;28;20072;-58
2022/04/14 00:17:57;;;;;;;1.88;1.10;;;11.10;99.90;;;;;;5034466;28;20136;-59
2022/04/14 00:20:24;;;;;;;2.00;1.30;;;11.00;99.90;;;;;;5022796;28;20096;-58
2022/04/14 00:22:51;;;;;;;1.35;0.90;;;11.00;99.90;;;;;;5032544;28;20103;-58
2022/04/14 00:25:18;;;;;;;2.03;1.27;;;11.00;99.90;;;;;;5024609;28;20088;-58
2022/04/14 00:27:45;;;;;;;1.75;1.08;;;10.90;99.90;;;;;;5029544;28;20427;-58
2022/04/14 00:30:12;;;;;;;3.05;1.20;;;10.90;99.90;;;;;;5042549;28;20090;-58
2022/04/14 00:32:39;;;;;;;1.63;1.08;;;10.90;99.90;;;;;;5027109;28;20420;-58
2022/04/14 00:35:06;;;;;;;3.97;1.60;;;10.80;99.90;;;;;;5023063;28;20045;-58
2022/04/14 00:37:33;;;;;;;1.52;1.10;;;10.70;99.90;;;;;;5024860;28;20095;-58
2022/04/14 00:40:00;;;;;;;2.28;1.23;;;10.70;99.90;;;;;;5032014;28;20137;-59
2022/04/14 00:42:27;;;;;;;1.95;1.10;;;10.60;99.90;;;;;;5022796;28;20049;-60
2022/04/14 00:44:53;;;;;;;3.85;2.40;;;10.60;99.90;;;;;;5023828;28;20212;-60
2022/04/14 00:47:20;;;;;;;3.47;1.50;;;10.60;99.90;;;;;;5024715;28;20041;-61
2022/04/14 00:49:47;;;;;;;2.53;1.17;;;10.60;99.90;;;;;;5022430;28;20124;-60
2022/04/14 00:52:14;;;;;;;2.10;1.20;;;10.60;99.90;;;;;;5023772;28;20080;-61
2022/04/14 00:54:41;;;;;;;2.10;1.30;;;10.60;99.90;;;;;;5024473;28;20085;-60
2022/04/14 00:57:08;;;;;;;2.25;1.02;;;10.60;99.90;;;;;;5020326;28;20140;-60
2022/04/14 00:59:35;;;;;;;1.67;1.10;;;10.60;99.90;;;;;;5024147;28;20212;-60
2022/04/14 01:02:01;;;;;;;2.08;1.00;;;10.60;99.90;;;;;;5013027;28;20084;-61
2022/04/14 01:04:28;;;;;;;1.35;0.93;;;10.50;99.90;;;;;;5021625;28;20046;-60
2022/04/14 01:06:55;;;;;;;2.85;1.42;;;10.40;99.90;;;;;;5025379;28;20081;-60
2022/04/14 01:09:22;;;;;;;2.55;1.20;;;10.40;99.90;;;;;;5022591;28;20558;-60
2022/04/14 01:11:50;;;;;;;1.58;1.17;;;10.30;99.90;;;;;;5019866;28;20080;-60
2022/04/14 01:14:28;;;;;;;1.63;1.02;;;10.30;99.90;;;;;;5023676;28;20280;-60
2022/04/14 01:16:57;;;;;;;2.17;1.17;;;10.20;99.90;;;;;;5023684;28;20120;-60
2022/04/14 01:19:24;;;;;;;1.48;0.98;;;10.20;99.90;;;;;;5018432;28;20124;-60
2022/04/14 01:22:28;;;;;;;2.55;1.13;;;10.20;99.90;;;;;;5023504;28;20187;-61
2022/04/14 01:24:57;;;;;;;1.92;1.20;;;10.20;99.90;;;;;;5026628;28;20215;-61
2022/04/14 01:27:29;;;;;;;2.13;1.10;;;10.10;99.90;;;;;;5023932;28;20107;-60
2022/04/14 01:29:56;;;;;;;2.95;1.17;;;10.10;99.90;;;;;;5025061;28;20491;-60
2022/04/14 01:32:22;;;;;;;1.58;1.02;;;10.10;99.90;;;;;;5020167;28;20048;-58
2022/04/14 01:34:50;;;;;;;1.80;1.10;;;10.10;99.90;;;;;;5039602;28;20049;-58
2022/04/14 01:37:17;;;;;;;2.53;1.27;;;10.00;99.90;;;;;;5033246;28;20053;-59
2022/04/14 01:39:44;;;;;;;3.25;1.38;;;9.90;99.90;;;;;;5024895;28;20057;-59
2022/04/14 01:42:10;;;;;;;2.63;1.50;;;9.90;99.90;;;;;;5025373;28;20133;-58
2022/04/14 01:44:37;;;;;;;2.67;1.30;;;9.90;99.90;;;;;;5028113;28;20136;-58
2022/04/14 01:47:04;;;;;;;2.08;1.10;;;9.80;99.90;;;;;;5024419;28;20120;-59
2022/04/14 01:49:31;;;;;;;2.92;1.30;;;9.80;99.90;;;;;;5023976;28;20641;-59
2022/04/14 01:51:58;;;;;;;2.15;1.20;;;9.80;99.90;;;;;;5041645;28;20512;-59
2022/04/14 01:54:24;;;;;;;2.15;1.27;;;9.70;99.90;;;;;;5024394;28;20136;-59
2022/04/14 01:56:51;;;;;;;2.30;1.20;;;9.70;99.90;;;;;;5023493;28;20120;-59
2022/04/14 01:59:18;;;;;;;2.55;1.20;;;9.70;99.90;;;;;;5024220;28;20136;-59
2022/04/14 02:01:45;;;;;;;2.47;1.42;;;9.60;99.90;;;;;;5023515;28;20119;-59
2022/04/14 02:04:12;;;;;;;3.35;1.40;;;9.60;99.90;;;;;;5025077;28;20049;-61
2022/04/14 02:06:38;;;;;;;2.75;1.35;;;9.60;99.90;;;;;;5022639;28;20120;-59
2022/04/14 02:09:05;;;;;;;2.40;1.50;;;9.70;99.90;;;;;;5024001;28;20128;-58
2022/04/14 02:11:32;;;;;;;1.75;1.30;;;9.60;99.90;;;;;;5018953;28;20040;-59
2022/04/14 02:13:59;;;;;;;2.22;1.48;;;9.60;99.90;;;;;;5022754;28;20481;-60
2022/04/14 02:16:26;;;;;;;3.35;1.98;;;9.60;99.90;;;;;;5021665;28;20140;-59
2022/04/14 02:18:52;;;;;;;2.10;1.30;;;9.60;99.90;;;;;;5023918;28;20045;-58
2022/04/14 02:21:19;;;;;;;2.38;1.30;;;9.60;99.90;;;;;;5022470;28;21389;-59
2022/04/14 02:23:46;;;;;;;4.65;1.65;;;9.60;99.90;;;;;;5022816;28;20093;-58
2022/04/14 02:26:13;;;;;;;2.60;1.30;;;9.60;99.90;;;;;;5031044;28;20045;-59
2022/04/14 02:28:40;;;;;;;1.88;1.25;;;9.60;99.90;;;;;;5046501;28;20053;-59
2022/04/14 02:31:07;;;;;;;2.53;1.33;;;9.50;99.90;;;;;;5037983;28;20049;-59
2022/04/14 02:33:33;;;;;;;2.20;1.42;;;9.50;99.90;;;;;;5027180;28;20041;-59
2022/04/14 02:36:00;;;;;;;2.13;1.13;;;9.50;99.90;;;;;;5025923;28;20651;-59
2022/04/14 02:38:27;;;;;;;2.08;1.42;;;9.40;99.90;;;;;;5026885;28;20164;-59
2022/04/14 02:40:54;;;;;;;1.90;1.10;;;9.40;99.90;;;;;;5025078;28;20073;-59
2022/04/14 02:43:21;;;;;;;2.53;1.30;;;9.40;99.90;;;;;;5035886;28;20164;-59
2022/04/14 02:45:49;;;;;;;1.70;1.10;;;9.30;99.90;;;;;;5045144;28;20134;-59
2022/04/14 02:48:16;;;;;;;2.42;1.35;;;9.20;99.90;;;;;;5029529;28;20095;-59
2022/04/14 02:50:43;;;;;;;2.00;0.93;;;9.20;99.90;;;;;;5025935;28;20157;-59
2022/04/14 02:53:11;;;;;;;1.42;1.10;;;9.20;99.90;;;;;;5038016;28;20049;-60
2022/04/14 02:55:37;;;;;;;2.30;1.20;;;9.20;99.90;;;;;;5034058;28;20080;-59
2022/04/14 02:58:04;;;;;;;1.70;1.33;;;9.20;99.90;;;;;;5034513;28;20044;-59
2022/04/14 03:00:31;;;;;;;1.83;1.10;;;9.20;99.90;;;;;;5043443;28;20385;-59
2022/04/14 03:02:59;;;;;;;2.33;1.30;;;9.10;99.90;;;;;;5039831;28;20049;-59
2022/04/14 03:05:26;;;;;;;1.90;1.10;;;9.10;99.90;;;;;;5025090;28;20045;-59
2022/04/14 03:07:53;;;;;;;2.45;1.60;;;9.10;99.90;;;;;;5027136;28;20120;-59
2022/04/14 03:10:20;;;;;;;2.15;1.27;;;9.10;99.90;;;;;;5032423;28;20121;-58
2022/04/14 03:12:47;;;;;;;2.15;1.40;;;9.10;99.90;;;;;;5040944;28;20077;-59
2022/04/14 03:15:14;;;;;;;1.60;1.30;;;9.00;99.90;;;;;;5026155;28;20041;-58
2022/04/14 03:17:41;;;;;;;2.20;1.38;;;9.10;99.90;;;;;;5022174;28;20049;-59
2022/04/14 03:20:08;;;;;;;1.63;1.25;;;9.00;99.90;;;;;;5024869;28;20084;-59
2022/04/14 03:22:35;;;;;;;2.70;1.42;;;9.00;99.90;;;;;;5026747;28;20132;-59
2022/04/14 03:25:06;;;;;;;2.35;1.30;;;9.00;99.90;;;;;;5026263;28;20529;-61
2022/04/14 03:27:32;;;;;;;2.08;1.20;;;8.90;99.90;;;;;;5022576;28;20041;-59
2022/04/14 03:29:59;;;;;;;1.65;1.00;;;8.90;99.90;;;;;;5025836;28;20631;-59
2022/04/14 03:32:26;;;;;;;2.30;1.40;;;8.90;99.90;;;;;;5025675;28;20132;-59
2022/04/14 03:34:53;;;;;;;2.30;1.20;;;8.90;99.90;;;;;;5024266;28;20136;-59
2022/04/14 03:37:20;;;;;;;2.60;1.40;;;8.90;99.90;;;;;;5019781;28;20132;-59
2022/04/14 03:39:47;;;;;;;2.72;1.50;;;8.80;99.90;;;;;;5025841;28;20225;-59
2022/04/14 03:42:13;;;;;;;2.28;1.23;;;8.80;99.90;;;;;;5023048;28;20061;-59
2022/04/14 03:44:40;;;;;;;1.75;1.00;;;8.70;99.90;;;;;;5018374;28;20141;-58
2022/04/14 03:47:07;;;;;;;1.98;1.20;;;8.70;99.90;;;;;;5031831;28;20160;-59
2022/04/14 03:49:34;;;;;;;2.70;1.13;;;8.60;99.90;;;;;;5025046;28;20168;-59
2022/04/14 03:52:01;;;;;;;2.40;1.30;;;8.60;99.90;;;;;;5039479;28;20126;-59
2022/04/14 03:54:28;;;;;;;3.33;1.13;;;8.60;99.90;;;;;;5025009;28;20095;-59
2022/04/14 03:56:54;;;;;;;2.03;1.20;;;8.60;99.90;;;;;;5027578;28;20132;-59
2022/04/14 03:59:21;;;;;;;2.33;1.33;;;8.60;99.90;;;;;;5016562;28;20856;-59
2022/04/14 04:01:48;;;;;;;2.30;1.17;;;8.60;99.90;;;;;;5028882;28;20132;-59
2022/04/14 04:04:15;;;;;;;2.83;1.10;;;8.60;99.90;;;;;;5022137;28;20113;-58
2022/04/14 04:06:41;;;;;;;2.47;1.10;;;8.60;99.90;;;;;;5042233;28;20048;-59
2022/04/14 04:09:08;;;;;;;2.15;1.30;;;8.60;99.90;;;;;;5044477;28;20072;-59
2022/04/14 04:11:35;;;;;;;2.35;1.25;;;8.60;99.90;;;;;;5042970;28;20132;-59
2022/04/14 04:14:02;;;;;;;2.30;1.33;;;8.60;99.90;;;;;;5031238;28;20139;-59
2022/04/14 04:16:29;;;;;;;1.73;1.00;;;8.60;99.90;;;;;;5024942;28;20131;-59
2022/04/14 04:18:55;;;;;;;1.83;1.30;;;8.50;99.90;;;;;;5043305;28;20049;-59
2022/04/14 04:21:24;;;;;;;3.20;1.67;;;8.50;99.90;;;;;;5042402;28;20135;-60
2022/04/14 04:23:51;;;;;;;2.05;1.45;;;8.50;99.90;;;;;;5021373;28;20065;-59
2022/04/14 04:26:18;;;;;;;2.92;1.58;;;8.50;99.90;;;;;;5024584;28;20510;-59
2022/04/14 04:28:44;;;;;;;1.85;1.35;;;8.50;99.90;;;;;;5025379;28;20136;-59
2022/04/14 04:31:11;;;;;;;1.90;1.40;;;8.50;99.90;;;;;;5024284;28;20041;-59
2022/04/14 04:33:38;;;;;;;2.50;1.52;;;8.50;99.90;;;;;;5020867;28;20175;-59
2022/04/14 04:36:07;;;;;;;1.75;1.30;;;8.40;99.90;;;;;;5022127;28;20405;-59
2022/04/14 04:38:34;;;;;;;2.10;1.27;;;8.40;99.90;;;;;;5023800;28;20049;-59
2022/04/14 04:41:00;;;;;;;2.05;1.38;;;8.40;99.90;;;;;;5022776;28;20124;-59
2022/04/14 04:43:27;;;;;;;3.75;1.27;;;8.40;99.90;;;;;;5035649;28;20111;-59
2022/04/14 04:45:54;;;;;;;2.75;1.40;;;8.30;99.90;;;;;;5024444;28;20440;-59
2022/04/14 04:48:21;;;;;;;2.30;1.35;;;8.30;99.90;;;;;;5019466;28;20517;-59
2022/04/14 04:50:48;;;;;;;2.08;1.35;;;8.40;99.90;;;;;;5019667;28;20132;-59
2022/04/14 04:53:15;;;;;;;2.83;1.50;;;8.30;99.90;;;;;;5032150;28;20223;-59
2022/04/14 04:55:42;;;;;;;2.83;1.35;;;8.20;99.90;;;;;;5022299;28;20060;-59
2022/04/14 04:58:09;;;;;;;2.20;1.45;;;8.30;99.90;;;;;;5021475;28;20065;-60
2022/04/14 05:00:35;;;;;;;1.63;1.15;;;8.30;99.90;;;;;;5021323;28;20127;-59
2022/04/14 05:03:10;;;;;;;2.28;1.33;;;8.30;99.90;;;;;;5019058;28;20069;-59
2022/04/14 05:05:37;;;;;;;2.45;1.42;;;8.30;99.90;;;;;;5029612;28;20132;-59
2022/04/14 05:08:05;;;;;;;2.03;1.20;;;8.30;99.90;;;;;;5038012;28;20558;-59
2022/04/14 05:10:33;;;;;;;2.17;1.30;;;8.30;99.90;;;;;;5029328;28;20200;-59
2022/04/14 05:13:00;;;;;;;2.38;1.55;;;8.30;99.90;;;;;;5030547;28;20507;-59
2022/04/14 05:15:27;;;;;;;2.42;1.40;;;8.30;99.90;;;;;;5026727;28;20056;-58
2022/04/14 05:17:54;;;;;;;2.63;1.50;;;8.30;99.90;;;;;;5028593;28;20052;-59
2022/04/14 05:20:21;;;;;;;2.83;1.85;;;8.30;99.90;;;;;;5026685;28;20132;-60
2022/04/14 05:22:48;;;;;;;3.42;1.52;;;8.30;99.90;;;;;;5033765;28;20073;-59
2022/04/14 05:25:15;;;;;;;3.05;1.75;;;8.30;99.90;;;;;;5027292;28;20141;-58
2022/04/14 05:27:44;;;;;;;2.40;1.85;;;8.30;99.90;;;;;;5028772;28;20041;-58
2022/04/14 05:30:11;;;;;;;2.47;1.67;;;8.30;99.90;;;;;;5008134;28;20546;-59
2022/04/14 05:32:41;;;;;;;3.08;1.70;;;8.30;99.90;;;;;;5015448;28;20923;-59
2022/04/14 05:35:08;;;;;;;2.20;1.40;;;8.30;99.90;;;;;;4996786;28;20140;-58
2022/04/14 05:37:35;;;;;;;2.90;1.60;;;8.30;99.90;;;;;;4998496;28;20049;-59
2022/04/14 05:40:04;;;;;;;2.25;1.65;;;8.30;99.90;;;;;;5008267;28;20059;-59
2022/04/14 05:42:30;;;;;;;2.80;1.50;;;8.40;99.90;;;;;;5006510;28;20685;-59
2022/04/14 05:44:58;;;;;;;2.13;1.48;;;8.40;99.90;;;;;;5015359;28;20056;-58
2022/04/14 05:47:25;;;;;;;2.75;1.33;;;8.40;99.90;;;;;;5009860;28;20082;-59
2022/04/14 05:49:52;;;;;;;1.73;1.25;;;8.40;99.90;;;;;;5017470;28;20184;-58
2022/04/14 05:52:20;;;;;;;3.90;1.80;;;8.40;99.90;;;;;;5013009;28;20061;-59
2022/04/14 05:54:47;;;;;;;3.13;2.05;;;8.40;99.90;;;;;;5010407;28;20139;-59
2022/04/14 05:57:14;;;;;;;3.58;1.98;;;8.40;99.90;;;;;;5006853;28;20810;-59
2022/04/14 05:59:41;;;;;;;3.30;2.28;;;8.50;99.90;;;;;;5010702;28;20057;-59
2022/04/14 06:02:09;;;;;;;2.55;1.92;;;8.60;99.90;;;;;;5000780;28;20547;-59
2022/04/14 06:04:36;;;;;;;3.65;1.65;;;8.60;99.90;;;;;;5017237;28;20057;-59
2022/04/14 06:07:03;;;;;;;2.83;1.95;;;8.70;99.90;;;;;;5002979;28;20119;-59
2022/04/14 06:09:30;;;;;;;3.35;2.20;;;8.80;99.90;;;;;;5011469;28;20080;-59
2022/04/14 06:11:57;;;;;;;3.63;2.35;;;8.80;99.90;;;;;;5002806;28;20125;-59
2022/04/14 06:14:25;;;;;;;3.50;1.70;;;8.90;99.90;;;;;;5025687;28;20052;-59
2022/04/14 06:16:52;;;;;;;2.92;1.98;;;8.90;99.90;;;;;;5019910;28;20150;-59
2022/04/14 06:19:19;;;;;;;2.22;1.70;;;9.00;99.90;;;;;;5031269;28;20119;-59
2022/04/14 06:21:45;;;;;;;2.20;1.40;;;9.10;99.90;;;;;;5025424;28;20329;-59
2022/04/14 06:24:12;;;;;;;5.85;1.75;;;9.20;99.90;;;;;;5022395;28;20329;-59
2022/04/14 06:26:39;;;;;;;3.22;1.83;;;9.20;99.90;;;;;;5004047;28;20506;-59
2022/04/14 06:29:06;;;;;;;2.30;1.65;;;9.30;99.90;;;;;;5008281;28;20347;-59
2022/04/14 06:31:33;;;;;;;2.67;1.52;;;9.40;99.90;;;;;;5014471;28;20474;-58
2022/04/14 06:34:00;;;;;;;2.72;1.88;;;9.50;99.90;;;;;;5027412;28;20574;-59
2022/04/14 06:36:26;;;;;;;4.13;1.50;;;9.60;99.90;;;;;;5039586;28;20172;-59
2022/04/14 06:38:53;;;;;;;3.80;2.05;;;9.70;99.90;;;;;;5024594;28;20160;-59
2022/04/14 06:41:20;;;;;;;4.25;1.95;;;9.80;99.90;;;;;;5019955;28;20140;-59
2022/04/14 06:43:49;;;;;;;3.17;1.83;;;9.90;99.90;;;;;;5010674;28;20425;-59
2022/04/14 06:46:16;;;;;;;3.60;1.90;;;9.90;99.90;;;;;;5017495;28;20429;-59
2022/04/14 06:48:43;;;;;;;3.03;1.73;;;10.00;99.90;;;;;;5018585;28;20041;-59
2022/04/14 06:51:10;;;;;;;2.38;1.60;;;10.10;99.90;;;;;;5013117;28;20581;-59
2022/04/14 06:53:38;;;;;;;2.35;1.88;;;10.20;99.90;;;;;;5012624;28;20141;-59
2022/04/14 06:56:05;;;;;;;3.03;1.67;;;10.30;99.90;;;;;;5014953;28;20131;-59
2022/04/14 06:58:32;;;;;;;2.88;1.98;;;10.30;99.90;;;;;;5024491;28;20176;-59
2022/04/14 07:00:58;;;;;;;3.10;1.92;;;10.40;99.90;;;;;;5012934;28;20049;-59
2022/04/14 07:03:26;;;;;;;3.42;1.77;;;10.50;99.90;;;;;;5009357;28;20123;-59
2022/04/14 07:05:56;;;;;;;2.45;1.77;;;10.70;99.90;;;;;;5002577;28;20050;-59
2022/04/14 07:08:26;;;;;;;3.58;2.17;;;10.80;99.90;;;;;;5020155;28;20161;-59
2022/04/14 07:10:53;;;;;;;3.05;2.00;;;10.90;99.90;;;;;;5015909;28;20117;-59
2022/04/14 07:13:20;;;;;;;3.33;2.75;;;11.10;99.90;;;;;;5014995;28;20144;-59
2022/04/14 07:15:46;;;;;;;4.95;2.58;;;11.20;99.90;;;;;;4999993;28;20049;-59
2022/04/14 07:18:13;;;;;;;6.22;3.30;;;11.30;99.90;;;;;;5009943;28;20049;-59
2022/04/14 07:20:40;;;;;;;4.72;2.90;;;11.40;99.90;;;;;;5021610;28;20084;-59
2022/04/14 07:23:07;;;;;;;7.80;3.30;;;11.50;99.90;;;;;;5020389;28;20132;-59
2022/04/14 07:25:34;;;;;;;4.90;3.13;;;11.60;99.90;;;;;;5017681;28;20088;-59
2022/04/14 07:28:01;;;;;;;4.28;3.17;;;11.70;99.90;;;;;;5019129;28;20220;-59
2022/04/14 07:30:28;;;;;;;5.32;3.15;;;11.80;99.90;;;;;;5017866;28;20145;-59
2022/04/14 07:32:55;;;;;;;4.30;3.10;;;11.80;99.90;;;;;;5020414;28;20385;-59
2022/04/14 07:35:22;;;;;;;4.13;2.50;;;11.90;99.90;;;;;;5016279;28;20560;-59
2022/04/14 07:37:49;;;;;;;4.22;3.38;;;11.90;99.90;;;;;;5011915;28;20209;-59
2022/04/14 07:40:16;;;;;;;4.60;3.03;;;12.00;99.90;;;;;;5014660;28;20146;-59
2022/04/14 07:42:44;;;;;;;5.68;3.60;;;12.10;99.90;;;;;;5018472;28;20116;-59
2022/04/14 07:45:11;;;;;;;3.50;2.63;;;12.20;99.90;;;;;;5017772;28;20203;-59
2022/04/14 07:47:41;;;;;;;6.03;3.20;;;12.30;99.90;;;;;;5008660;28;20132;-59
2022/04/14 07:50:09;;;;;;;4.30;3.10;;;12.40;99.90;;;;;;5007867;28;20063;-59
2022/04/14 07:52:55;;;;;;;5.32;2.90;;;12.40;99.90;;;;;;5018975;28;20201;-59
2022/04/14 07:55:23;;;;;;;4.88;3.15;;;12.50;99.90;;;;;;5018704;28;20515;-59
2022/04/14 07:57:51;;;;;;;3.67;2.90;;;12.60;99.90;;;;;;5015983;28;20140;-60
2022/04/14 08:00:20;;;;;;;4.00;3.00;;;12.60;99.90;;;;;;5017062;28;20084;-59
2022/04/14 08:02:50;;;;;;;4.18;3.45;;;12.80;99.90;;;;;;5018864;28;20057;-59
2022/04/14 08:05:17;;;;;;;5.88;3.45;;;12.80;99.90;;;;;;5015468;28;20579;-59
2022/04/14 08:07:44;;;;;;;3.95;3.10;;;12.90;99.90;;;;;;5019089;28;20045;-60
2022/04/14 08:10:10;;;;;;;4.93;3.10;;;13.00;99.90;;;;;;5018084;28;20061;-59
2022/04/14 08:12:37;;;;;;;4.75;3.20;;;13.00;99.90;;;;;;5018020;28;20148;-59
2022/04/14 08:15:04;;;;;;;3.65;2.90;;;13.10;99.90;;;;;;5016913;28;20165;-59
2022/04/14 08:17:33;;;;;;;5.03;3.17;;;13.20;99.90;;;;;;5019091;28;20060;-59
2022/04/14 08:20:00;;;;;;;4.43;3.10;;;13.20;99.90;;;;;;5017151;28;20129;-59
2022/04/14 08:22:26;;;;;;;5.40;3.25;;;13.20;99.90;;;;;;5018338;28;20064;-59
2022/04/14 08:24:53;;;;;;;4.72;3.70;;;13.20;99.90;;;;;;5017200;28;20141;-59
2022/04/14 08:27:20;;;;;;;5.75;2.72;;;13.30;99.90;;;;;;5018706;28;20148;-59
2022/04/14 08:29:47;;;;;;;4.70;3.25;;;13.40;99.90;;;;;;5018257;28;20153;-59
2022/04/14 08:32:13;;;;;;;3.20;2.85;;;13.50;99.90;;;;;;5018291;28;20080;-59
2022/04/14 08:34:40;;;;;;;4.80;2.97;;;13.50;99.90;;;;;;5017184;28;20093;-59
2022/04/14 08:37:07;;;;;;;4.95;3.10;;;13.50;99.90;;;;;;5015923;28;20092;-59
2022/04/14 08:39:34;;;;;;;3.90;3.13;;;13.60;99.90;;;;;;5018109;28;20176;-59
2022/04/14 08:42:05;;;;;;;4.78;3.25;;;13.70;99.90;;;;;;5018104;28;20089;-59
2022/04/14 08:44:36;;;;;;;3.13;2.47;;;13.80;99.90;;;;;;5016321;28;20532;-59
2022/04/14 08:47:03;;;;;;;3.35;2.58;;;13.90;99.90;;;;;;5015586;28;20132;-60
2022/04/14 08:49:30;;;;;;;4.15;2.83;;;14.00;99.90;;;;;;5015666;28;20366;-59
2022/04/14 08:51:57;;;;;;;4.20;3.03;;;14.20;99.90;;;;;;5016963;28;20490;-59
2022/04/14 08:54:23;;;;;;;3.17;2.08;;;14.20;99.90;;;;;;5016470;28;20136;-59
2022/04/14 08:56:51;;;;;;;5.25;2.95;;;14.30;99.90;;;;;;5016493;28;20144;-59
2022/04/14 08:59:18;;;;;;;3.20;2.13;;;14.40;99.90;;;;;;5015379;28;20427;-59
2022/04/14 09:01:45;;;;;;;2.95;2.05;;;14.50;99.90;;;;;;5015669;28;20145;-59
2022/04/14 09:04:11;;;;;;;3.22;1.83;;;14.60;99.90;;;;;;5015832;28;20049;-59
2022/04/14 09:06:38;;;;;;;5.68;2.65;;;14.70;99.90;;;;;;5015016;28;20049;-59
2022/04/14 09:09:05;;;;;;;3.63;2.50;;;14.90;99.90;;;;;;5016205;28;20057;-60
2022/04/14 09:11:32;;;;;;;3.22;2.42;;;15.00;99.90;;;;;;5017521;28;20436;-60
2022/04/14 09:13:59;;;;;;;3.22;2.33;;;15.10;99.90;;;;;;5015524;28;20557;-59
2022/04/14 09:16:29;;;;;;;3.25;2.05;;;15.20;99.90;;;;;;5017302;28;20136;-59
2022/04/14 09:18:56;;;;;;;2.50;1.70;;;15.30;99.90;;;;;;5017693;28;20114;-59
2022/04/14 09:21:23;;;;;;;2.72;2.05;;;15.40;99.90;;;;;;5015822;28;20408;-59
2022/04/14 09:23:51;;;;;;;2.72;1.70;;;15.60;99.90;;;;;;4996297;28;20279;-59
2022/04/14 09:26:23;;;;;;;2.22;1.65;;;15.70;99.90;;;;;;4998203;28;20136;-59
2022/04/14 09:29:02;;;;;;;4.05;1.75;;;15.80;99.90;;;;;;4998124;28;20530;-59
2022/04/14 09:31:28;;;;;;;3.25;1.80;;;15.90;99.90;;;;;;5017136;28;20092;-59
2022/04/14 09:33:55;;;;;;;2.80;1.73;;;16.00;99.90;;;;;;5015263;28;20049;-59
2022/04/14 09:36:23;;;;;;;2.72;1.90;;;16.10;99.90;;;;;;5016391;28;20053;-59
2022/04/14 09:38:58;;;;;;;2.85;2.05;;;16.30;99.90;;;;;;5021132;28;20251;-59
2022/04/14 09:41:41;;;;;;;3.42;1.90;;;16.40;99.90;;;;;;5020042;28;20471;-59
2022/04/14 09:44:08;;;;;;;;;;;16.50;99.90;;;;;;5021771;28;20123;-60
2022/04/14 09:46:36;;;;;;;3.50;1.98;;;16.60;99.90;;;;;;5019239;28;20028;-60
2022/04/14 09:49:08;;;;;;;2.42;1.83;;;16.60;99.90;;;;;;5019615;28;20471;-60
2022/04/14 09:51:42;;;;;;;3.15;1.85;;;16.70;99.90;;;;;;5020818;28;20405;-59
2022/04/14 09:54:19;;;;;;;3.65;2.17;;;16.80;99.90;;;;;;5021083;28;20215;-60
2022/04/14 09:56:55;;;;;;;3.60;1.92;;;16.80;99.90;;;;;;5021361;28;20151;-60
2022/04/14 09:59:26;;;;;;;2.97;1.38;;;16.90;99.90;;;;;;5020750;28;20141;-60
2022/04/14 10:02:16;;;;;;;3.20;1.73;;;17.00;99.90;;;;;;5020917;28;20089;-59
2022/04/14 10:04:44;;;;;;;3.17;1.65;;;17.10;99.90;;;;;;5021081;28;20096;-59
2022/04/14 10:07:15;;;;;;;3.20;1.80;;;17.10;99.90;;;;;;5019115;28;20147;-59
2022/04/14 10:09:43;;;;;;;2.65;1.70;;;17.20;99.90;;;;;;5018683;28;20064;-59
2022/04/14 10:12:19;;;;;;;2.20;1.65;;;17.20;99.90;;;;;;5006153;28;20128;-59
2022/04/14 10:14:58;;;;;;;1.85;1.50;;;17.30;99.90;;;;;;5034256;28;20495;-59
2022/04/14 10:17:26;;;;;;;2.10;1.50;;;17.40;99.90;;;;;;5005943;28;20115;-59
2022/04/14 10:19:52;;;;;;;2.03;1.42;;;17.60;99.90;;;;;;5007441;28;20174;-59
2022/04/14 10:22:19;;;;;;;2.95;1.85;;;17.60;99.90;;;;;;5017455;28;20291;-59
2022/04/14 10:24:46;;;;;;;3.13;1.30;;;17.60;99.90;;;;;;5020003;28;20093;-60
2022/04/14 10:27:14;;;;;;;2.92;1.65;;;17.60;99.90;;;;;;5017877;28;20062;-60
2022/04/14 10:29:41;;;;;;;2.00;1.40;;;17.70;99.90;;;;;;5012629;28;20046;-59
2022/04/14 10:32:08;;;;;;;2.47;1.58;;;17.70;99.90;;;;;;5010481;28;20388;-59
2022/04/14 10:34:35;;;;;;;2.55;1.48;;;17.80;99.90;;;;;;5013621;28;20501;-60
2022/04/14 10:37:02;;;;;;;2.08;1.40;;;17.70;99.90;;;;;;5017431;28;20061;-60
2022/04/14 10:39:31;;;;;;;1.95;1.40;;;17.70;99.90;;;;;;5008862;28;20165;-60
2022/04/14 10:41:59;;;;;;;1.60;1.08;;;17.80;99.90;;;;;;5012887;28;20159;-60
2022/04/14 10:44:43;;;;;;;2.47;1.40;;;17.90;99.90;;;;;;5012508;28;20129;-60
2022/04/14 10:47:10;;;;;;;2.55;1.42;;;17.90;99.90;;;;;;5020649;28;20503;-60
2022/04/14 10:49:39;;;;;;;1.73;1.30;;;17.90;99.90;;;;;;5008479;28;20136;-60
2022/04/14 10:52:26;;;;;;;1.73;1.17;;;17.90;99.90;;;;;;5018200;28;20624;-59
2022/04/14 10:55:00;;;;;;;2.78;1.30;;;18.00;99.90;;;;;;5017972;28;20080;-60
2022/04/14 10:57:36;;;;;;;3.45;1.00;;;18.20;99.90;;;;;;5020229;28;20183;-60
2022/04/14 11:00:18;;;;;;;1.75;0.77;;;18.30;99.90;;;;;;5020745;28;20128;-59
2022/04/14 11:03:01;;;;;;;2.70;1.40;;;18.20;99.90;;;;;;5021356;28;20073;-60
2022/04/14 11:05:46;;;;;;;1.85;1.15;;;18.20;99.90;;;;;;5015325;28;20276;-60
2022/04/14 11:08:25;;;;;;;2.53;1.50;;;18.20;99.90;;;;;;5021022;28;20131;-60
2022/04/14 11:11:08;;;;;;;1.92;1.13;;;18.20;99.90;;;;;;5021104;28;20144;-59
2022/04/14 11:13:50;;;;;;;1.48;0.98;;;18.10;99.90;;;;;;5020916;28;20115;-59
2022/04/14 11:16:39;;;;;;;2.72;1.20;;;18.20;99.90;;;;;;5020691;28;20474;-59
2022/04/14 11:19:27;;;;;;;2.05;0.93;;;18.30;99.90;;;;;;5020170;28;20532;-59
2022/04/14 11:22:09;;;;;;;2.08;0.88;;;18.40;99.90;;;;;;5019323;28;20080;-59
2022/04/14 11:24:36;;;;;;;1.95;0.93;;;18.50;99.90;;;;;;5003795;28;20074;-66
2022/04/14 11:27:16;;;;;;;1.50;0.80;;;18.70;99.90;;;;;;5018482;28;20053;-59
2022/04/14 11:29:47;;;;;;;1.30;0.68;;;19.00;99.90;;;;;;5005259;28;20045;-60
2022/04/14 11:32:15;;;;;;;2.10;1.02;;;19.40;99.90;;;;;;5011901;28;20244;-61
2022/04/14 11:35:13;;;;;;;1.50;1.05;;;19.60;99.90;;;;;;5019439;28;20060;-60
2022/04/14 11:37:41;;;;;;;2.13;0.70;;;19.80;99.90;;;;;;5018484;28;20524;-59
2022/04/14 11:40:24;;;;;;;1.88;1.08;;;19.80;99.90;;;;;;5019320;28;20060;-60
2022/04/14 11:42:55;;;;;;;0.82;0.70;;;19.70;99.90;;;;;;5004582;28;20611;-60
2022/04/14 11:45:25;;;;;;;2.17;0.75;;;20.10;99.90;;;;;;5006013;28;20136;-59
2022/04/14 11:47:54;;;;;;;1.50;1.02;;;20.10;99.90;;;;;;5013097;28;20514;-60
2022/04/14 11:50:23;;;;;;;2.58;1.00;;;20.10;99.90;;;;;;5006504;28;20077;-60
2022/04/14 11:53:00;;;;;;;2.33;1.13;;;20.00;99.90;;;;;;5009452;28;20128;-60
2022/04/14 11:55:38;;;;;;;2.70;1.00;;;19.70;99.90;;;;;;5009510;28;20108;-60
2022/04/14 11:58:05;;;;;;;3.47;1.42;;;19.60;99.90;;;;;;5022301;28;20079;-60
2022/04/14 12:00:42;;;;;;;1.50;0.82;;;19.70;99.90;;;;;;5025843;28;20072;-59
2022/04/14 12:03:09;;;;;;;1.40;0.80;;;20.10;99.90;;;;;;5013306;28;20064;-60
2022/04/14 12:05:36;;;;;;;1.55;1.10;;;20.30;99.90;;;;;;5026340;28;20038;-60
2022/04/14 12:08:12;;;;;;;0.80;0.70;;;20.50;99.90;;;;;;5013661;28;20439;-60
2022/04/14 12:10:38;;;;;;;2.22;1.00;;;21.10;99.90;;;;;;5017305;28;20136;-60
2022/04/14 12:13:08;;;;;;;0.82;0.60;;;21.50;99.90;;;;;;5008402;28;20130;-61
2022/04/14 12:15:36;;;;;;;1.10;0.70;;;21.70;99.90;;;;;;5011476;28;20049;-60
2022/04/14 12:18:10;;;;;;;1.38;0.80;;;21.80;99.90;;;;;;5015067;28;20075;-60
2022/04/14 12:20:40;;;;;;;1.23;0.80;;;21.90;99.90;;;;;;5025560;28;20446;-60
2022/04/14 12:23:07;;;;;;;1.30;0.88;;;22.20;99.90;;;;;;5028066;28;20092;-60
2022/04/14 12:25:35;;;;;;;1.40;0.80;;;22.00;99.00;;;;;;5006137;28;20115;-60
2022/04/14 12:28:03;;;;;;;1.30;0.80;;;21.90;99.90;;;;;;4998505;28;20603;-60
2022/04/14 12:30:30;;;;;;;0.73;0.70;;;22.30;99.20;;;;;;5007407;28;20080;-61
2022/04/14 12:33:05;;;;;;;0.85;0.80;;;22.90;98.60;;;;;;5017291;28;20128;-61
2022/04/14 12:35:36;;;;;;;1.25;0.73;;;23.30;97.10;;;;;;5020250;28;20676;-60
2022/04/14 12:38:16;;;;;;;0.70;0.70;;;23.40;96.50;;;;;;5018591;28;20053;-60
2022/04/14 12:41:02;;;;;;;1.48;0.93;;;23.60;96.90;;;;;;5007989;28;20128;-62
2022/04/14 12:43:37;;;;;;;1.75;1.08;;;24.20;96.40;;;;;;5009691;28;20461;-60
2022/04/14 12:46:24;;;;;;;0.75;0.55;;;24.20;96.10;;;;;;5013663;28;20057;-62
2022/04/14 12:49:07;;;;;;;0.98;0.60;;;24.20;95.20;;;;;;5004532;28;20056;-60
2022/04/14 12:51:55;;;;;;;0.77;0.60;;;23.90;95.70;;;;;;5009909;28;20132;-61
2022/04/14 12:54:23;;;;;;;0.70;0.70;;;23.90;94.70;;;;;;5007637;28;20136;-60
2022/04/14 12:56:57;;;;;;;1.05;0.40;;;24.50;94.70;;;;;;4990371;28;20050;-60
2022/04/14 12:59:24;;;;;;;0.88;0.60;;;24.80;93.50;;;;;;5008649;28;20050;-60